Time;durP1;ratioP1;P1;durP2;ratioP2;P2;SDS_P1;SDS_P2;PMS_P1;PMS_P2;Temp;Humidity;BMP_temperature;BMP_pressure;BME280_temperature;BME280_humidity;BME280_pressure;Samples;Min_cycle;Max_cycle;Signal;HPM_P1;HPM_P2
2023/01/28 00:01:52;;;;;;;;;;;5.10;99.90;;;;;;5091357;28;20370;-62
2023/01/28 00:04:18;;;;;;;;;;;5.10;99.90;;;;;;5085793;28;19922;-63
2023/01/28 00:06:44;;;;;;;;;;;5.10;99.90;;;;;;5086997;28;19912;-63
2023/01/28 00:09:09;;;;;;;;;;;5.10;99.90;;;;;;5084654;28;20074;-62
2023/01/28 00:11:35;;;;;;;;;;;5.10;99.90;;;;;;5080985;28;19984;-63
2023/01/28 00:14:03;;;;;;;;;;;5.00;99.90;;;;;;5090892;28;19927;-63
2023/01/28 00:16:29;;;;;;;;;;;5.00;99.90;;;;;;5094879;28;19916;-62
2023/01/28 00:18:55;;;;;;;;;;;4.90;99.90;;;;;;5094911;28;19920;-62
2023/01/28 00:21:25;;;;;;;;;;;4.80;99.90;;;;;;5085941;28;20358;-61
2023/01/28 00:23:53;;;;;;;;;;;4.80;99.90;;;;;;5089995;28;19966;-63
2023/01/28 00:26:20;;;;;;;;;;;4.80;99.90;;;;;;5084441;28;20438;-63
2023/01/28 00:28:47;;;;;;;;;;;4.80;99.90;;;;;;5079969;28;20562;-61
2023/01/28 00:31:16;;;;;;;;;;;4.80;99.90;;;;;;5087466;28;20061;-62
2023/01/28 00:33:43;;;;;;;;;;;4.80;99.90;;;;;;5079803;28;19912;-62
2023/01/28 00:36:08;;;;;;;;;;;4.80;99.90;;;;;;5075505;28;19942;-60
2023/01/28 00:38:34;;;;;;;;;;;4.70;99.90;;;;;;5074461;28;19996;-61
2023/01/28 00:41:07;;;;;;;;;;;4.70;99.90;;;;;;5076031;28;19931;-61
2023/01/28 00:43:33;;;;;;;;;;;4.60;99.90;;;;;;5075225;28;19942;-61
2023/01/28 00:45:58;;;;;;;;;;;4.50;99.90;;;;;;5071173;28;20373;-59
2023/01/28 00:48:24;;;;;;;;;;;4.50;99.90;;;;;;5078957;28;20040;-62
2023/01/28 00:50:50;;;;;;;;;;;4.40;99.90;;;;;;5077054;28;19924;-63
2023/01/28 00:53:16;;;;;;;;;;;4.40;99.90;;;;;;5086919;28;20373;-63
2023/01/28 00:55:41;;;;;;;;;;;4.40;99.90;;;;;;5078738;28;20008;-62
2023/01/28 00:58:07;;;;;;;;;;;4.30;99.90;;;;;;5072144;28;19994;-60
2023/01/28 01:00:32;;;;;;;;;;;4.40;99.90;;;;;;5074713;28;19932;-61
2023/01/28 01:02:58;;;;;;;;;;;4.30;99.90;;;;;;5074875;28;19918;-61
2023/01/28 01:05:24;;;;;;;;;;;4.30;99.90;;;;;;5075392;28;19916;-59
2023/01/28 01:07:49;;;;;;;;;;;4.30;99.90;;;;;;5072090;28;19923;-60
2023/01/28 01:10:16;;;;;;;;;;;4.30;99.90;;;;;;5072609;28;19999;-61
2023/01/28 01:12:42;;;;;;;;;;;4.30;99.90;;;;;;5078425;28;20413;-63
2023/01/28 01:15:09;;;;;;;;;;;4.20;99.90;;;;;;5076507;28;20019;-63
2023/01/28 01:17:42;;;;;;;;;;;4.30;99.90;;;;;;5080215;28;19934;-61
2023/01/28 01:20:10;;;;;;;;;;;4.30;99.90;;;;;;5075988;28;19918;-60
2023/01/28 01:22:36;;;;;;;;;;;4.20;99.90;;;;;;5071539;28;20395;-61
2023/01/28 01:25:02;;;;;;;;;;;4.20;99.90;;;;;;5082119;28;19912;-61
2023/01/28 01:27:29;;;;;;;;;;;4.20;99.90;;;;;;5079910;28;19923;-61
2023/01/28 01:29:54;;;;;;;;;;;4.20;99.90;;;;;;5074951;28;19923;-61
2023/01/28 01:32:21;;;;;;;;;;;4.20;99.90;;;;;;5074001;28;19924;-61
2023/01/28 01:34:46;;;;;;;;;;;4.30;99.90;;;;;;5076126;28;20050;-62
2023/01/28 01:37:12;;;;;;;;;;;4.30;99.90;;;;;;5073200;28;19999;-63
2023/01/28 01:39:37;;;;;;;;;;;4.20;99.90;;;;;;5074456;28;19984;-61
2023/01/28 01:42:03;;;;;;;;;;;4.20;99.90;;;;;;5075165;28;19920;-61
2023/01/28 01:44:47;;;;;;;;;;;4.30;99.90;;;;;;5074736;28;19924;-63
2023/01/28 01:47:13;;;;;;;;;;;4.20;99.90;;;;;;5079329;28;20408;-62
2023/01/28 01:49:39;;;;;;;;;;;4.20;99.90;;;;;;5081630;28;19914;-63
2023/01/28 01:52:07;;;;;;;;;;;4.10;99.90;;;;;;5075394;28;19924;-62
2023/01/28 01:54:35;;;;;;;;;;;4.00;99.90;;;;;;5071954;28;20444;-58
2023/01/28 01:57:01;;;;;;;;;;;4.00;99.90;;;;;;5076307;28;20366;-62
2023/01/28 01:59:28;;;;;;;;;;;4.00;99.90;;;;;;5075421;28;21803;-63
2023/01/28 02:01:54;;;;;;;;;;;4.00;99.90;;;;;;5073995;28;20354;-62
2023/01/28 02:04:30;;;;;;;;;;;4.00;99.90;;;;;;5074482;28;19969;-64
2023/01/28 02:06:57;;;;;;;;;;;4.00;99.90;;;;;;5072060;28;19912;-61
2023/01/28 02:09:25;;;;;;;;;;;3.90;99.90;;;;;;5072390;28;19920;-62
2023/01/28 02:11:53;;;;;;;;;;;4.00;99.90;;;;;;5075498;28;19939;-61
2023/01/28 02:14:19;;;;;;;;;;;4.00;99.90;;;;;;5074577;28;20373;-61
2023/01/28 02:16:45;;;;;;;;;;;3.90;99.90;;;;;;5076434;28;19916;-60
2023/01/28 02:19:11;;;;;;;;;;;3.90;99.90;;;;;;5073189;28;19994;-62
2023/01/28 02:21:59;;;;;;;;;;;3.90;99.90;;;;;;5072468;28;19917;-62
2023/01/28 02:24:39;;;;;;;;;;;3.80;99.90;;;;;;5074765;28;20327;-61
2023/01/28 02:27:30;;;;;;;;;;;3.80;99.90;;;;;;5073599;28;19951;-61
2023/01/28 02:29:59;;;;;;;;;;;3.80;99.90;;;;;;5081470;28;19919;-62
2023/01/28 02:32:28;;;;;;;;;;;3.70;99.90;;;;;;5083393;28;19964;-61
2023/01/28 02:34:53;;;;;;;;;;;3.80;99.90;;;;;;5077051;28;19912;-61
2023/01/28 02:37:39;;;;;;;;;;;3.70;99.90;;;;;;5080553;28;20107;-62
2023/01/28 02:40:08;;;;;;;;;;;3.80;99.90;;;;;;5076187;28;19966;-61
2023/01/28 02:42:35;;;;;;;;;;;3.70;99.90;;;;;;5081134;28;19912;-61
2023/01/28 02:45:01;;;;;;;;;;;3.70;99.90;;;;;;5092779;28;19953;-62
2023/01/28 02:50:13;;;;;;;;;;;3.70;99.90;;;;;;5077957;28;20220;-62
2023/01/28 02:55:42;;;;;;;;;;;3.70;99.90;;;;;;5077502;28;19987;-62
2023/01/28 02:58:26;;;;;;;;;;;3.70;99.90;;;;;;5078698;28;19920;-62
2023/01/28 03:01:01;;;;;;;;;;;3.70;99.90;;;;;;5076629;28;19923;-59
2023/01/28 03:03:27;;;;;;;;;;;3.70;99.90;;;;;;5079104;28;19916;-64
2023/01/28 03:06:07;;;;;;;;;;;3.70;99.90;;;;;;5078881;28;20293;-63
2023/01/28 03:38:57;;;;;;;;;;;3.80;99.90;;;;;;5083907;28;20037;-61
2023/01/28 03:41:24;;;;;;;;;;;3.80;99.90;;;;;;5092652;28;19915;-60
2023/01/28 03:43:49;;;;;;;;;;;3.80;99.90;;;;;;5088607;28;19915;-62
2023/01/28 03:46:15;;;;;;;;;;;3.80;99.90;;;;;;5084481;28;20054;-62
2023/01/28 03:48:41;;;;;;;;;;;3.80;99.90;;;;;;5078636;28;19918;-60
2023/01/28 03:51:06;;;;;;;;;;;3.80;99.90;;;;;;5079063;28;20043;-59
2023/01/28 03:53:32;;;;;;;;;;;3.80;99.90;;;;;;5072644;28;20055;-61
2023/01/28 03:55:58;;;;;;;;;;;3.80;99.90;;;;;;5084448;28;19967;-61
2023/01/28 03:58:25;;;;;;;;;;;3.80;99.90;;;;;;5081887;28;19913;-62
2023/01/28 04:00:51;;;;;;;;;;;3.80;99.90;;;;;;5089702;28;19912;-61
2023/01/28 04:03:18;;;;;;;;;;;3.90;99.90;;;;;;5080740;28;19916;-61
2023/01/28 04:05:45;;;;;;;;;;;3.80;99.90;;;;;;5074151;28;20409;-61
2023/01/28 04:08:10;;;;;;;;;;;3.90;99.90;;;;;;5075075;28;19916;-61
2023/01/28 04:10:38;;;;;;;;;;;3.90;99.90;;;;;;5075090;28;20216;-61
2023/01/28 04:13:03;;;;;;;;;;;3.90;99.90;;;;;;5074439;28;19919;-62
2023/01/28 04:15:29;;;;;;;;;;;3.90;99.90;;;;;;5078931;28;21183;-62
2023/01/28 04:17:55;;;;;;;;;;;4.00;99.90;;;;;;5088343;28;19919;-64
2023/01/28 04:20:21;;;;;;;;;;;4.10;99.90;;;;;;5090151;28;19919;-61
2023/01/28 04:22:46;;;;;;;;;;;4.10;99.90;;;;;;5091197;28;20625;-61
2023/01/28 04:25:12;;;;;;;;;;;4.10;99.90;;;;;;5081713;28;19912;-62
2023/01/28 04:27:38;;;;;;;;;;;4.10;99.90;;;;;;5089809;28;19920;-61
2023/01/28 04:30:03;;;;;;;;;;;4.10;99.90;;;;;;5075264;28;19962;-60
2023/01/28 04:32:29;;;;;;;;;;;4.10;99.90;;;;;;5073055;28;19985;-63
2023/01/28 04:34:54;;;;;;;;;;;4.10;99.90;;;;;;5076629;28;20510;-61
2023/01/28 04:37:20;;;;;;;;;;;4.10;99.90;;;;;;5082375;28;20366;-57
2023/01/28 04:39:46;;;;;;;;;;;4.10;99.90;;;;;;5092014;28;20274;-61
2023/01/28 04:42:11;;;;;;;;;;;4.20;99.90;;;;;;5087873;28;19919;-62
2023/01/28 04:44:37;;;;;;;;;;;4.20;99.90;;;;;;5078790;28;20416;-63
2023/01/28 04:47:02;;;;;;;;;;;4.30;99.90;;;;;;5078971;28;19916;-63
2023/01/28 04:49:28;;;;;;;;;;;4.20;99.90;;;;;;5071662;28;19912;-62
2023/01/28 04:51:53;;;;;;;;;;;4.30;99.90;;;;;;5075887;28;19991;-62
2023/01/28 04:54:19;;;;;;;;;;;4.20;99.90;;;;;;5075464;28;20759;-63
2023/01/28 04:56:45;;;;;;;;;;;4.20;99.90;;;;;;5072498;28;19916;-62
2023/01/28 04:59:10;;;;;;;;;;;4.20;99.90;;;;;;5074656;28;19920;-57
2023/01/28 05:01:36;;;;;;;;;;;4.20;99.90;;;;;;5072515;28;20821;-62
2023/01/28 05:04:04;;;;;;;;;;;4.20;99.90;;;;;;5074204;28;19913;-59
2023/01/28 05:06:30;;;;;;;;;;;4.20;99.90;;;;;;5072420;28;19931;-64
2023/01/28 05:08:56;;;;;;;;;;;4.20;99.90;;;;;;5073521;28;19920;-61
2023/01/28 05:11:22;;;;;;;;;;;4.20;99.90;;;;;;5072368;28;19924;-62
2023/01/28 05:13:48;;;;;;;;;;;4.20;99.90;;;;;;5075617;28;19912;-62
2023/01/28 05:16:13;;;;;;;;;;;4.10;99.90;;;;;;5076273;28;19919;-59
2023/01/28 05:18:39;;;;;;;;;;;4.10;99.90;;;;;;5073376;28;20030;-63
2023/01/28 05:21:04;;;;;;;;;;;4.10;99.90;;;;;;5075973;28;20015;-61
2023/01/28 05:23:30;;;;;;;;;;;4.10;99.90;;;;;;5076992;28;20033;-64
2023/01/28 05:25:55;;;;;;;;;;;4.10;99.90;;;;;;5075918;28;19935;-61
2023/01/28 05:28:21;;;;;;;;;;;4.10;99.90;;;;;;5076747;28;19912;-63
2023/01/28 05:30:47;;;;;;;;;;;4.10;99.90;;;;;;5070478;28;19928;-61
2023/01/28 05:33:12;;;;;;;;;;;4.10;99.90;;;;;;5075467;28;20282;-62
2023/01/28 05:35:38;;;;;;;;;;;4.00;99.90;;;;;;5074624;28;19921;-62
2023/01/28 05:38:04;;;;;;;;;;;4.00;99.90;;;;;;5074708;28;19916;-63
2023/01/28 05:40:29;;;;;;;;;;;4.00;99.90;;;;;;5075228;28;20637;-59
2023/01/28 05:42:55;;;;;;;;;;;4.00;99.90;;;;;;5077083;28;19932;-62
2023/01/28 05:45:21;;;;;;;;;;;4.10;99.90;;;;;;5076832;28;19920;-63
2023/01/28 05:47:46;;;;;;;;;;;4.00;99.90;;;;;;5076289;28;20019;-63
2023/01/28 05:50:13;;;;;;;;;;;3.90;99.90;;;;;;5070778;28;19912;-63
2023/01/28 05:52:38;;;;;;;;;;;3.80;99.90;;;;;;5071974;28;19935;-62
2023/01/28 05:55:05;;;;;;;;;;;3.80;99.90;;;;;;5072845;28;19916;-60
2023/01/28 05:57:30;;;;;;;;;;;3.80;99.90;;;;;;5074214;28;20031;-63
2023/01/28 05:59:56;;;;;;;;;;;3.70;99.90;;;;;;5075067;28;20015;-62
2023/01/28 06:02:22;;;;;;;;;;;3.70;99.90;;;;;;5072851;28;19912;-61
2023/01/28 06:04:47;;;;;;;;;;;3.70;99.90;;;;;;5070720;28;20488;-60
2023/01/28 06:07:14;;;;;;;;;;;3.60;99.90;;;;;;5075102;28;20325;-62
2023/01/28 06:09:40;;;;;;;;;;;3.60;99.90;;;;;;5079536;28;19916;-63
2023/01/28 06:12:05;;;;;;;;;;;3.60;99.90;;;;;;5076870;28;20512;-62
2023/01/28 06:14:31;;;;;;;;;;;3.60;99.90;;;;;;5081786;28;19966;-59
2023/01/28 06:16:57;;;;;;;;;;;3.60;99.90;;;;;;5081523;28;20278;-62
2023/01/28 06:19:22;;;;;;;;;;;3.70;99.90;;;;;;5089235;28;19946;-63
2023/01/28 06:21:48;;;;;;;;;;;3.80;99.90;;;;;;5089472;28;19923;-64
2023/01/28 06:24:13;;;;;;;;;;;3.80;99.90;;;;;;5084878;28;20031;-62
2023/01/28 06:26:39;;;;;;;;;;;3.90;99.90;;;;;;5079504;28;20001;-64
2023/01/28 06:29:05;;;;;;;;;;;3.90;99.90;;;;;;5080149;28;19935;-62
2023/01/28 06:31:31;;;;;;;;;;;3.90;99.90;;;;;;5081428;28;19924;-61
2023/01/28 06:33:57;;;;;;;;;;;3.90;99.90;;;;;;5081097;28;19912;-64
2023/01/28 06:36:22;;;;;;;;;;;4.00;99.90;;;;;;5082134;28;19919;-62
2023/01/28 06:38:48;;;;;;;;;;;4.00;99.90;;;;;;5079921;28;19912;-63
2023/01/28 06:41:13;;;;;;;;;;;4.10;99.90;;;;;;5076208;28;19916;-63
2023/01/28 06:43:39;;;;;;;;;;;4.10;99.90;;;;;;5079060;28;20394;-62
2023/01/28 06:46:05;;;;;;;;;;;4.10;99.90;;;;;;5078670;28;19958;-64
2023/01/28 06:48:31;;;;;;;;;;;4.20;99.90;;;;;;5079253;28;19974;-65
2023/01/28 06:50:56;;;;;;;;;;;4.20;99.90;;;;;;5079593;28;19920;-62
2023/01/28 06:53:22;;;;;;;;;;;4.20;99.90;;;;;;5080376;28;19948;-61
2023/01/28 06:55:48;;;;;;;;;;;4.20;99.90;;;;;;5074891;28;20646;-62
2023/01/28 06:58:13;;;;;;;;;;;4.30;99.90;;;;;;5075738;28;20047;-62
2023/01/28 07:00:39;;;;;;;;;;;4.30;99.90;;;;;;5081905;28;19912;-62
2023/01/28 07:03:04;;;;;;;;;;;4.30;99.90;;;;;;5081288;28;19912;-61
2023/01/28 07:05:30;;;;;;;;;;;4.40;99.90;;;;;;5078343;28;19931;-65
2023/01/28 07:07:56;;;;;;;;;;;4.30;99.90;;;;;;5075143;28;19920;-61
2023/01/28 07:10:21;;;;;;;;;;;4.30;99.90;;;;;;5075914;28;19913;-63
2023/01/28 07:12:47;;;;;;;;;;;4.20;99.90;;;;;;5074958;28;19920;-62
2023/01/28 07:15:13;;;;;;;;;;;4.20;99.90;;;;;;5080427;28;20267;-64
2023/01/28 07:17:40;;;;;;;;;;;4.30;99.90;;;;;;5074361;28;19913;-64
2023/01/28 07:20:06;;;;;;;;;;;4.30;99.90;;;;;;5082224;28;19974;-62
2023/01/28 07:22:32;;;;;;;;;;;4.30;99.90;;;;;;5076803;28;19912;-64
2023/01/28 07:24:57;;;;;;;;;;;4.40;99.90;;;;;;5078186;28;20324;-61
2023/01/28 07:27:23;;;;;;;;;;;4.40;99.90;;;;;;5076789;28;19940;-62
2023/01/28 07:29:49;;;;;;;;;;;4.40;99.90;;;;;;5079468;28;19958;-62
2023/01/28 07:32:15;;;;;;;;;;;4.50;99.90;;;;;;5076205;28;19939;-63
2023/01/28 07:34:41;;;;;;;;;;;4.50;99.90;;;;;;5075287;28;19971;-64
2023/01/28 07:37:08;;;;;;;;;;;4.50;99.90;;;;;;5077026;28;19994;-65
2023/01/28 07:39:33;;;;;;;;;;;4.70;99.90;;;;;;5090024;28;19912;-61
2023/01/28 07:41:59;;;;;;;;;;;4.70;99.90;;;;;;5086667;28;20278;-62
2023/01/28 07:44:25;;;;;;;;;;;4.70;99.90;;;;;;5076933;28;19912;-62
2023/01/28 07:46:51;;;;;;;;;;;4.80;99.90;;;;;;5077141;28;19961;-63
2023/01/28 07:49:16;;;;;;;;;;;4.80;99.90;;;;;;5078224;28;19927;-64
2023/01/28 07:51:45;;;;;;;;;;;4.80;99.90;;;;;;5075243;28;20012;-63
2023/01/28 07:54:10;;;;;;;;;;;4.90;99.90;;;;;;5079185;28;20368;-63
2023/01/28 07:56:36;;;;;;;;;;;4.90;99.90;;;;;;5079672;28;20062;-64
2023/01/28 07:59:02;;;;;;;;;;;5.00;99.90;;;;;;5077600;28;19912;-65
2023/01/28 08:01:27;;;;;;;;;;;5.00;99.90;;;;;;5083800;28;19995;-62
2023/01/28 08:04:02;;;;;;;;;;;5.20;99.90;;;;;;5078108;28;19920;-64
2023/01/28 08:06:30;;;;;;;;;;;5.20;99.90;;;;;;5076245;28;19921;-61
2023/01/28 08:09:00;;;;;;;;;;;5.30;99.90;;;;;;5076144;28;20034;-63
2023/01/28 08:11:28;;;;;;;;;;;5.30;99.90;;;;;;5076531;28;20058;-61
2023/01/28 08:13:53;;;;;;;;;;;5.30;99.90;;;;;;5081688;28;20349;-64
2023/01/28 08:16:19;;;;;;;;;;;5.30;99.90;;;;;;5073306;28;20011;-64
2023/01/28 08:18:45;;;;;;;;;;;5.30;99.90;;;;;;5086331;28;19916;-60
2023/01/28 08:21:10;;;;;;;;;;;5.30;99.90;;;;;;5082221;28;19912;-60
2023/01/28 08:23:36;;;;;;;;;;;5.30;99.90;;;;;;5087584;28;20317;-62
2023/01/28 08:26:01;;;;;;;;;;;5.40;99.90;;;;;;5084946;28;19916;-64
2023/01/28 08:28:27;;;;;;;;;;;5.30;99.90;;;;;;5084980;28;20373;-64
2023/01/28 08:30:52;;;;;;;;;;;5.20;99.90;;;;;;5088042;28;19970;-62
2023/01/28 08:33:18;;;;;;;;;;;5.20;99.90;;;;;;5080173;28;19920;-60
2023/01/28 08:35:44;;;;;;;;;;;5.20;99.90;;;;;;5084362;28;19962;-60
2023/01/28 08:38:11;;;;;;;;;;;5.50;99.90;;;;;;5090124;28;19951;-58
2023/01/28 08:40:37;;;;;;;;;;;5.70;99.90;;;;;;5091560;28;19957;-58
2023/01/28 08:43:03;;;;;;;;;;;5.80;99.90;;;;;;5080014;28;19915;-56
2023/01/28 08:45:29;;;;;;;;;;;5.80;99.90;;;;;;5089012;28;19912;-61
2023/01/28 08:47:55;;;;;;;;;;;6.00;99.90;;;;;;5074336;28;19920;-60
2023/01/28 08:50:22;;;;;;;;;;;6.00;99.90;;;;;;5088748;28;19912;-58
2023/01/28 08:52:48;;;;;;;;;;;5.90;99.90;;;;;;5082323;28;20018;-58
2023/01/28 08:55:14;;;;;;;;;;;6.00;99.90;;;;;;5077341;28;19919;-59
2023/01/28 08:57:40;;;;;;;;;;;5.90;99.90;;;;;;5079948;28;19912;-61
2023/01/28 09:00:08;;;;;;;;;;;6.10;99.90;;;;;;5084764;28;20029;-61
2023/01/28 09:02:33;;;;;;;;;;;6.00;99.90;;;;;;5087954;28;19912;-61
2023/01/28 09:04:59;;;;;;;;;;;6.10;99.90;;;;;;5085096;28;20007;-58
2023/01/28 09:07:24;;;;;;;;;;;6.20;99.90;;;;;;5088408;28;20301;-55
2023/01/28 09:09:50;;;;;;;;;;;6.20;99.90;;;;;;5081224;28;19920;-59
2023/01/28 09:12:16;;;;;;;;;;;6.30;99.90;;;;;;5085651;28;20418;-58
2023/01/28 09:14:41;;;;;;;;;;;6.20;99.90;;;;;;5076438;28;19912;-60
2023/01/28 09:17:07;;;;;;;;;;;6.20;99.90;;;;;;5079667;28;20270;-57
2023/01/28 09:19:32;;;;;;;;;;;6.10;99.90;;;;;;5083996;28;19912;-61
2023/01/28 09:21:58;;;;;;;;;;;6.00;99.90;;;;;;5087563;28;20028;-62
2023/01/28 09:24:24;;;;;;;;;;;6.00;99.90;;;;;;5079206;28;19919;-59
2023/01/28 09:26:49;;;;;;;;;;;6.00;99.90;;;;;;5081954;28;20010;-61
2023/01/28 09:29:15;;;;;;;;;;;6.10;99.90;;;;;;5089683;28;19987;-59
2023/01/28 09:31:41;;;;;;;;;;;6.30;99.90;;;;;;5083543;28;19927;-58
2023/01/28 09:34:07;;;;;;;;;;;6.30;99.90;;;;;;5085212;28;19952;-58
2023/01/28 09:36:32;;;;;;;;;;;6.20;99.90;;;;;;5083784;28;20542;-54
2023/01/28 09:38:58;;;;;;;;;;;6.20;99.90;;;;;;5078100;28;20010;-52
2023/01/28 09:41:28;;;;;;;;;;;6.20;99.90;;;;;;5083681;28;19935;-56
2023/01/28 09:44:02;;;;;;;;;;;6.30;99.90;;;;;;5077971;28;19919;-60
2023/01/28 09:46:32;;;;;;;;;;;6.30;99.90;;;;;;5089431;28;19931;-57
2023/01/28 09:49:00;;;;;;;;;;;6.40;99.90;;;;;;5088283;28;19920;-57
2023/01/28 09:51:29;;;;;;;;;;;6.40;99.90;;;;;;5086901;28;19916;-58
2023/01/28 09:53:57;;;;;;;;;;;6.40;99.90;;;;;;5078121;28;20361;-55
2023/01/28 09:56:31;;;;;;;;;;;6.60;99.90;;;;;;5085931;28;20026;-54
2023/01/28 09:59:15;;;;;;;;;;;6.60;99.90;;;;;;5084395;28;19913;-54
2023/01/28 10:01:45;;;;;;;;;;;6.70;99.90;;;;;;5081653;28;19908;-54
2023/01/28 10:04:22;;;;;;;;;;;7.00;99.90;;;;;;5091162;28;19924;-59
2023/01/28 10:06:48;;;;;;;;;;;7.10;99.90;;;;;;5092896;28;19999;-59
2023/01/28 10:09:13;;;;;;;;;;;6.90;99.90;;;;;;5085083;28;19974;-54
2023/01/28 10:11:43;;;;;;;;;;;6.80;99.90;;;;;;5090314;28;20369;-58
2023/01/28 10:14:13;;;;;;;;;;;6.80;99.90;;;;;;5090315;28;19915;-55
2023/01/28 10:16:45;;;;;;;;;;;6.80;99.90;;;;;;5074849;28;19912;-57
2023/01/28 10:19:23;;;;;;;;;;;6.80;99.90;;;;;;5083044;28;19913;-52
2023/01/28 10:21:51;;;;;;;;;;;7.00;99.90;;;;;;5084457;28;19999;-58
2023/01/28 10:24:23;;;;;;;;;;;7.10;99.90;;;;;;5083534;28;19916;-53
2023/01/28 10:26:53;;;;;;;;;;;7.10;99.90;;;;;;5082965;28;19965;-59
2023/01/28 10:29:30;;;;;;;;;;;7.20;99.90;;;;;;5083220;28;20332;-57
2023/01/28 10:32:14;;;;;;;;;;;7.30;99.90;;;;;;5085725;28;19916;-54
2023/01/28 10:34:41;;;;;;;;;;;7.30;99.90;;;;;;5071386;28;20400;-62
2023/01/28 10:37:08;;;;;;;;;;;7.20;99.90;;;;;;5070481;28;19968;-59
2023/01/28 10:39:34;;;;;;;;;;;7.10;99.90;;;;;;5085280;28;19923;-56
2023/01/28 10:42:00;;;;;;;;;;;7.00;99.90;;;;;;5089659;28;20431;-57
2023/01/28 10:44:34;;;;;;;;;;;6.90;99.90;;;;;;5076806;28;19912;-59
2023/01/28 10:47:03;;;;;;;;;;;6.90;99.90;;;;;;5078770;28;19934;-56
2023/01/28 10:49:30;;;;;;;;;;;6.80;99.90;;;;;;5076430;28;19912;-58
2023/01/28 10:51:56;;;;;;;;;;;6.80;99.90;;;;;;5084173;28;20015;-59
2023/01/28 10:54:26;;;;;;;;;;;6.90;99.90;;;;;;5080850;28;20010;-60
2023/01/28 10:56:57;;;;;;;;;;;6.80;99.90;;;;;;5070901;28;20346;-58
2023/01/28 10:59:27;;;;;;;;;;;6.90;99.90;;;;;;5082594;28;19912;-63
2023/01/28 11:01:58;;;;;;;;;;;6.70;99.90;;;;;;5090498;28;20010;-56
2023/01/28 11:04:24;;;;;;;;;;;6.70;99.90;;;;;;5087933;28;19935;-59
2023/01/28 11:06:53;;;;;;;;;;;6.60;99.90;;;;;;5087585;28;20354;-55
2023/01/28 11:09:23;;;;;;;;;;;6.50;99.90;;;;;;5089448;28;19916;-53
2023/01/28 11:11:48;;;;;;;;;;;6.60;99.90;;;;;;5083736;28;19920;-55
2023/01/28 11:14:21;;;;;;;;;;;6.60;99.90;;;;;;5086220;28;20288;-60
2023/01/28 11:16:48;;;;;;;;;;;6.50;99.90;;;;;;5086023;28;19919;-54
2023/01/28 11:19:14;;;;;;;;;;;6.50;99.90;;;;;;5101638;28;19939;-59
2023/01/28 11:21:47;;;;;;;;;;;6.40;99.90;;;;;;5092948;28;19908;-52
2023/01/28 11:24:14;;;;;;;;;;;6.30;99.90;;;;;;5080774;28;20938;-57
2023/01/28 11:26:43;;;;;;;;;;;6.30;99.90;;;;;;5090587;28;19966;-54
2023/01/28 11:29:26;;;;;;;;;;;6.30;99.90;;;;;;5079666;28;19919;-58
2023/01/28 11:31:51;;;;;;;;;;;6.30;99.90;;;;;;5082789;28;20428;-54
2023/01/28 11:34:18;;;;;;;;;;;6.40;99.90;;;;;;5090916;28;19958;-56
2023/01/28 11:37:04;;;;;;;;;;;6.30;99.90;;;;;;5092509;28;20003;-56
2023/01/28 11:39:30;;;;;;;;;;;6.30;99.90;;;;;;5088754;28;19926;-57
2023/01/28 11:42:02;;;;;;;;;;;6.30;99.90;;;;;;5092482;28;19908;-55
2023/01/28 11:44:28;;;;;;;;;;;6.30;99.90;;;;;;5091660;28;19912;-61
2023/01/28 11:46:54;;;;;;;;;;;6.40;99.90;;;;;;5088762;28;19912;-60
2023/01/28 11:49:23;;;;;;;;;;;6.40;99.90;;;;;;5085370;28;19913;-61
2023/01/28 11:51:51;;;;;;;;;;;6.40;99.90;;;;;;5094660;28;19938;-61
2023/01/28 11:54:35;;;;;;;;;;;6.40;99.90;;;;;;5087856;28;19920;-58
2023/01/28 11:57:11;;;;;;;;;;;6.40;99.90;;;;;;5090818;28;19919;-59
2023/01/28 11:59:55;;;;;;;;;;;6.50;99.90;;;;;;5090868;28;20540;-58
2023/01/28 12:02:23;;;;;;;;;;;6.50;99.90;;;;;;5082356;28;19912;-60
2023/01/28 12:05:08;;;;;;;;;;;6.40;99.90;;;;;;5086089;28;19912;-55
2023/01/28 12:07:53;;;;;;;;;;;6.40;99.90;;;;;;5084139;28;19925;-54
2023/01/28 12:10:23;;;;;;;;;;;6.50;99.90;;;;;;5087770;28;20012;-61
2023/01/28 12:12:49;;;;;;;;;;;6.40;99.90;;;;;;5085227;28;19916;-58
2023/01/28 12:15:20;;;;;;;;;;;6.40;99.90;;;;;;5091706;28;20003;-53
2023/01/28 12:17:58;;;;;;;;;;;6.40;99.90;;;;;;5076622;28;19935;-54
2023/01/28 12:20:37;;;;;;;;;;;6.30;99.90;;;;;;5082365;28;19912;-59
2023/01/28 12:23:06;;;;;;;;;;;6.30;99.90;;;;;;5082990;28;19912;-57
2023/01/28 12:25:42;;;;;;;;;;;6.30;99.90;;;;;;5080222;28;19912;-59
2023/01/28 12:28:08;;;;;;;;;;;6.30;99.90;;;;;;5092241;28;20003;-62
2023/01/28 12:30:37;;;;;;;;;;;6.40;99.90;;;;;;5091470;28;19919;-57
2023/01/28 12:33:18;;;;;;;;;;;6.50;99.90;;;;;;5090692;28;19971;-57
2023/01/28 12:35:55;;;;;;;;;;;6.50;99.90;;;;;;5083955;28;20036;-55
2023/01/28 12:38:39;;;;;;;;;;;6.60;99.90;;;;;;5090901;28;20003;-57
2023/01/28 12:41:14;;;;;;;;;;;6.70;99.90;;;;;;5088179;28;20022;-61
2023/01/28 12:43:42;;;;;;;;;;;6.70;99.90;;;;;;5084393;28;19912;-52
2023/01/28 12:46:11;;;;;;;;;;;6.80;99.90;;;;;;5089764;28;19909;-57
2023/01/28 12:48:48;;;;;;;;;;;6.80;99.90;;;;;;5088233;28;19912;-55
2023/01/28 12:51:15;;;;;;;;;;;6.90;99.90;;;;;;5091087;28;20015;-57
2023/01/28 12:53:51;;;;;;;;;;;7.00;99.90;;;;;;5087124;28;19908;-59
2023/01/28 12:56:18;;;;;;;;;;;7.10;99.90;;;;;;5092846;28;20007;-59
2023/01/28 12:58:49;;;;;;;;;;;7.20;99.90;;;;;;5081212;28;19912;-57
2023/01/28 13:01:17;;;;;;;;;;;7.10;99.90;;;;;;5087812;28;19912;-57
2023/01/28 13:03:48;;;;;;;;;;;7.00;99.90;;;;;;5089596;28;20278;-57
2023/01/28 13:06:16;;;;;;;;;;;7.10;99.90;;;;;;5089955;28;19926;-57
2023/01/28 13:08:42;;;;;;;;;;;7.10;99.90;;;;;;5088635;28;20001;-56
2023/01/28 13:11:14;;;;;;;;;;;7.00;99.90;;;;;;5091353;28;19959;-57
2023/01/28 13:13:43;;;;;;;;;;;7.00;99.90;;;;;;5091686;28;19988;-54
2023/01/28 13:16:10;;;;;;;;;;;7.00;99.90;;;;;;5084394;28;19909;-58
2023/01/28 13:18:38;;;;;;;;;;;7.00;99.90;;;;;;5075034;28;19912;-60
2023/01/28 13:21:04;;;;;;;;;;;6.90;99.90;;;;;;5088654;28;20006;-57
2023/01/28 13:23:30;;;;;;;;;;;7.00;99.90;;;;;;5087558;28;19946;-62
2023/01/28 13:26:07;;;;;;;;;;;7.00;99.90;;;;;;5090385;28;19977;-57
2023/01/28 13:28:33;;;;;;;;;;;6.90;99.90;;;;;;5085858;28;19912;-56
2023/01/28 13:31:00;;;;;;;;;;;6.80;99.90;;;;;;5088929;28;19923;-53
2023/01/28 13:33:34;;;;;;;;;;;6.70;99.90;;;;;;5071107;28;20005;-52
2023/01/28 13:36:02;;;;;;;;;;;6.80;99.90;;;;;;5088666;28;20386;-55
2023/01/28 13:38:28;;;;;;;;;;;6.80;99.90;;;;;;5087932;28;20279;-57
2023/01/28 13:41:05;;;;;;;;;;;6.80;99.90;;;;;;5088884;28;19961;-57
2023/01/28 13:43:36;;;;;;;;;;;6.80;99.90;;;;;;5083860;28;20034;-54
2023/01/28 13:46:12;;;;;;;;;;;6.80;99.90;;;;;;5087629;28;19927;-59
2023/01/28 13:48:41;;;;;;;;;;;6.80;99.90;;;;;;5089085;28;19912;-61
2023/01/28 13:51:22;;;;;;;;;;;6.80;99.90;;;;;;5090226;28;19936;-53
2023/01/28 13:53:54;;;;;;;;;;;6.80;99.90;;;;;;5089352;28;19912;-60
2023/01/28 13:56:21;;;;;;;;;;;6.80;99.90;;;;;;5081681;28;20313;-59
2023/01/28 13:58:56;;;;;;;;;;;6.70;99.90;;;;;;5082723;28;19924;-53
2023/01/28 14:01:21;;;;;;;;;;;6.70;99.90;;;;;;5078555;28;19912;-54
2023/01/28 14:04:00;;;;;;;;;;;6.70;99.90;;;;;;5088841;28;19938;-61
2023/01/28 14:06:42;;;;;;;;;;;6.70;99.90;;;;;;5091012;28;19919;-58
2023/01/28 14:09:28;;;;;;;;;;;6.70;99.90;;;;;;5087538;28;19919;-58
2023/01/28 14:12:12;;;;;;;;;;;6.80;99.90;;;;;;5088343;28;19942;-57
2023/01/28 14:14:44;;;;;;;;;;;6.70;99.90;;;;;;5085872;28;19911;-56
2023/01/28 14:17:28;;;;;;;;;;;6.60;99.90;;;;;;5093681;28;19966;-58
2023/01/28 14:19:54;;;;;;;;;;;6.50;99.90;;;;;;5087592;28;19946;-58
2023/01/28 14:22:19;;;;;;;;;;;6.50;99.90;;;;;;5091198;28;19930;-58
2023/01/28 14:24:45;;;;;;;;;;;6.40;99.90;;;;;;5095575;28;19916;-60
2023/01/28 14:27:34;;;;;;;;;;;6.40;99.90;;;;;;5088893;28;19919;-58
2023/01/28 14:30:03;;;;;;;;;;;6.30;99.90;;;;;;5078240;28;20397;-55
2023/01/28 14:32:30;;;;;;;;;;;6.30;99.90;;;;;;5083092;28;19923;-58
2023/01/28 14:34:57;;;;;;;;;;;6.20;99.90;;;;;;5091945;28;19999;-57
2023/01/28 14:37:24;;;;;;;;;;;6.10;99.90;;;;;;5081645;28;19986;-55
2023/01/28 14:39:51;;;;;;;;;;;6.10;99.90;;;;;;5090399;28;19919;-60
2023/01/28 14:42:28;;;;;;;;;;;6.00;99.90;;;;;;5086181;28;20019;-59
2023/01/28 14:44:54;;;;;;;;;;;6.10;99.90;;;;;;5098948;28;19915;-59
2023/01/28 14:47:20;;;;;;;;;;;6.00;99.90;;;;;;5092183;28;20377;-61
2023/01/28 14:50:10;;;;;;;;;;;6.00;99.90;;;;;;5083158;28;20243;-61
2023/01/28 14:53:05;;;;;;;;;;;5.90;99.90;;;;;;5083026;28;20278;-59
2023/01/28 14:55:43;;;;;;;;;;;6.00;99.90;;;;;;5035529;28;20004;-59
2023/01/28 14:58:21;;;;;;;;;;;5.90;99.90;;;;;;5073229;28;20004;-59
2023/01/28 15:00:54;;;;;;;;;;;5.90;99.90;;;;;;5075397;28;19924;-56
2023/01/28 15:03:20;;;;;;;;;;;5.90;99.90;;;;;;5090930;28;19908;-59
2023/01/28 15:05:46;;;;;;;;;;;5.90;99.90;;;;;;5088711;28;20012;-60
2023/01/28 15:08:21;;;;;;;;;;;5.80;99.90;;;;;;5093064;28;19916;-60
2023/01/28 15:10:47;;;;;;;;;;;5.80;99.90;;;;;;5091837;28;20002;-61
2023/01/28 15:13:23;;;;;;;;;;;5.80;99.90;;;;;;5089976;28;20400;-60
2023/01/28 15:15:49;;;;;;;;;;;5.80;99.90;;;;;;5093232;28;19996;-59